Time;durP1;ratioP1;P1;durP2;ratioP2;P2;SDS_P1;SDS_P2;PMS_P1;PMS_P2;Temp;Humidity;BMP_temperature;BMP_pressure;BME280_temperature;BME280_humidity;BME280_pressure;Samples;Min_cycle;Max_cycle;Signal;HPM_P1;HPM_P2
2022/07/13 00:02:11;;;;;;;1.20;1.03;;;;;;;;;;5100826;28;20308;-63
2022/07/13 00:04:39;;;;;;;1.10;0.90;;;;;;;;;;5101073;28;20257;-63
2022/07/13 00:07:08;;;;;;;1.20;1.10;;;;;;;;;;5101123;28;20298;-63
2022/07/13 00:09:35;;;;;;;1.10;0.90;;;;;;;;;;5100832;28;20802;-62
2022/07/13 00:12:04;;;;;;;2.57;0.90;;;;;;;;;;5100198;28;20243;-63
2022/07/13 00:14:34;;;;;;;1.40;1.10;;;;;;;;;;5102146;28;20231;-63
2022/07/13 00:17:02;;;;;;;1.40;0.97;;;;;;;;;;5097633;28;20242;-63
2022/07/13 00:19:30;;;;;;;1.07;1.00;;;;;;;;;;5100890;28;20238;-63
2022/07/13 00:21:58;;;;;;;1.23;1.13;;;;;;;;;;5110631;28;20260;-63
2022/07/13 00:24:26;;;;;;;1.60;1.20;;;;;;;;;;5105741;28;20259;-63
2022/07/13 00:26:54;;;;;;;1.20;1.10;;;;;;;;;;5100787;28;20247;-63
2022/07/13 00:29:22;;;;;;;1.13;1.03;;;;;;;;;;5099877;28;20231;-62
2022/07/13 00:31:51;;;;;;;1.50;1.27;;;;;;;;;;5101962;28;20208;-63
2022/07/13 00:34:19;;;;;;;0.90;0.90;;;;;;;;;;5100096;28;20230;-63
2022/07/13 00:36:49;;;;;;;1.43;1.10;;;;;;;;;;5101022;28;20228;-62
2022/07/13 00:39:17;;;;;;;1.70;1.10;;;;;;;;;;5100952;28;20262;-63
2022/07/13 00:41:46;;;;;;;2.07;1.10;;;;;;;;;;5098854;28;20649;-63
2022/07/13 00:44:15;;;;;;;1.30;1.20;;;;;;;;;;5097590;28;20559;-63
2022/07/13 00:46:44;;;;;;;1.70;1.13;;;;;;;;;;5099336;28;20205;-63
2022/07/13 00:49:13;;;;;;;1.27;1.20;;;;;;;;;;5100778;28;20227;-63
2022/07/13 00:51:42;;;;;;;0.97;0.97;;;;;;;;;;5099415;28;20227;-63
2022/07/13 00:54:10;;;;;;;1.27;1.17;;;;;;;;;;5099332;28;20743;-63
2022/07/13 00:56:41;;;;;;;4.07;1.00;;;;;;;;;;5099600;28;20232;-63
2022/07/13 00:59:09;;;;;;;1.47;1.20;;;;;;;;;;5098934;28;20225;-63
2022/07/13 01:01:37;;;;;;;1.33;1.10;;;;;;;;;;5098666;28;20234;-63
2022/07/13 01:04:05;;;;;;;1.90;0.90;;;;;;;;;;5099267;28;20271;-63
2022/07/13 01:06:34;;;;;;;1.03;0.93;;;;;;;;;;5099213;28;20687;-62
2022/07/13 01:09:02;;;;;;;1.00;1.00;;;;;;;;;;5099412;28;20234;-63
2022/07/13 01:11:32;;;;;;;1.93;1.03;;;;;;;;;;5099303;28;20765;-62
2022/07/13 01:14:00;;;;;;;1.17;1.00;;;;;;;;;;5099943;28;20261;-63
2022/07/13 01:16:29;;;;;;;2.33;1.10;;;;;;;;;;5099699;28;20233;-63
2022/07/13 01:18:58;;;;;;;1.40;1.17;;;;;;;;;;5099205;28;20638;-63
2022/07/13 01:21:26;;;;;;;1.30;1.13;;;;;;;;;;5099384;28;20249;-63
2022/07/13 01:23:55;;;;;;;1.03;0.97;;;;;;;;;;5099195;28;20265;-63
2022/07/13 01:26:23;;;;;;;1.27;1.20;;;;;;;;;;5099390;28;20236;-62
2022/07/13 01:28:51;;;;;;;1.00;1.00;;;;;;;;;;5099146;28;20688;-63
2022/07/13 01:31:26;;;;;;;1.00;1.00;;;;;;;;;;5099551;28;20238;-63
2022/07/13 01:33:54;;;;;;;2.30;1.20;;;;;;;;;;5098973;28;20249;-62
2022/07/13 01:36:22;;;;;;;2.27;1.30;;;;;;;;;;5099270;28;20208;-62
2022/07/13 01:38:50;;;;;;;0.90;0.90;;;;;;;;;;5098985;28;20644;-62
2022/07/13 01:41:20;;;;;;;1.10;1.00;;;;;;;;;;5099232;28;20236;-62
2022/07/13 01:43:48;;;;;;;3.53;1.20;;;;;;;;;;5098867;28;20727;-63
2022/07/13 01:46:16;;;;;;;2.83;1.17;;;;;;;;;;5099136;28;20237;-62
2022/07/13 01:48:44;;;;;;;2.73;1.03;;;;;;;;;;5098979;28;20288;-63
2022/07/13 01:51:12;;;;;;;1.10;1.10;;;;;;;;;;5099076;28;20237;-63
2022/07/13 01:53:41;;;;;;;1.17;1.00;;;;;;;;;;5099048;28;20233;-63
2022/07/13 01:56:09;;;;;;;1.33;1.23;;;;;;;;;;5098807;28;20601;-63
2022/07/13 01:58:39;;;;;;;2.30;1.67;;;;;;;;;;5098730;28;20240;-63
2022/07/13 02:01:07;;;;;;;0.90;0.90;;;;;;;;;;5099023;28;20215;-63
2022/07/13 02:03:35;;;;;;;1.10;1.00;;;;;;;;;;5098362;28;20256;-63
2022/07/13 02:06:05;;;;;;;2.73;1.10;;;;;;;;;;5099027;28;20206;-63
2022/07/13 02:08:33;;;;;;;2.93;1.23;;;;;;;;;;5096018;28;20243;-61
2022/07/13 02:11:01;;;;;;;1.33;1.23;;;;;;;;;;5085828;28;20281;-63
2022/07/13 02:13:29;;;;;;;2.00;0.93;;;;;;;;;;5097774;28;20281;-64
2022/07/13 02:15:59;;;;;;;1.67;1.10;;;;;;;;;;5097996;28;20244;-63
2022/07/13 02:18:27;;;;;;;1.50;1.07;;;;;;;;;;5097759;28;20642;-63
2022/07/13 02:20:55;;;;;;;1.10;1.10;;;;;;;;;;5098517;28;20241;-63
2022/07/13 02:23:23;;;;;;;1.20;1.10;;;;;;;;;;5097701;28;20273;-63
2022/07/13 02:25:51;;;;;;;1.30;1.20;;;;;;;;;;5098380;28;20236;-63
2022/07/13 02:28:19;;;;;;;2.77;0.93;;;;;;;;;;5098497;28;20240;-63
2022/07/13 02:30:47;;;;;;;1.10;1.00;;;;;;;;;;5098525;28;20237;-62
2022/07/13 02:33:16;;;;;;;2.43;1.20;;;;;;;;;;5097956;28;20282;-63
2022/07/13 02:35:44;;;;;;;2.87;0.93;;;;;;;;;;5098143;28;20232;-62
2022/07/13 02:38:12;;;;;;;1.90;1.23;;;;;;;;;;5098094;28;20224;-63
2022/07/13 02:40:40;;;;;;;1.20;0.90;;;;;;;;;;5098222;28;20208;-63
2022/07/13 02:43:08;;;;;;;1.03;1.03;;;;;;;;;;5097919;28;20264;-63
2022/07/13 02:45:36;;;;;;;1.27;1.13;;;;;;;;;;5110060;28;20205;-62
2022/07/13 02:48:05;;;;;;;1.47;1.27;;;;;;;;;;5118500;28;20246;-63
2022/07/13 02:50:34;;;;;;;1.33;1.03;;;;;;;;;;5118315;28;20694;-62
2022/07/13 02:53:02;;;;;;;1.30;0.77;;;;;;;;;;5118205;28;20266;-61
2022/07/13 02:55:30;;;;;;;2.10;1.20;;;;;;;;;;5105631;28;20208;-62
2022/07/13 02:58:00;;;;;;;1.13;0.97;;;;;;;;;;5098127;28;20233;-62
2022/07/13 03:00:28;;;;;;;1.57;1.10;;;;;;;;;;5097718;28;20550;-62
2022/07/13 03:02:56;;;;;;;1.27;1.20;;;;;;;;;;5097520;28;20295;-62
2022/07/13 03:05:24;;;;;;;2.37;1.30;;;;;;;;;;5097975;28;20224;-62
2022/07/13 03:07:54;;;;;;;1.77;1.00;;;;;;;;;;5097736;28;20237;-62
2022/07/13 03:10:22;;;;;;;1.30;1.20;;;;;;;;;;5097438;28;20666;-62
2022/07/13 03:12:50;;;;;;;1.10;1.10;;;;;;;;;;5097637;28;20650;-62
2022/07/13 03:15:18;;;;;;;2.17;1.40;;;;;;;;;;5096987;28;20208;-62
2022/07/13 03:17:46;;;;;;;6.43;1.23;;;;;;;;;;5097382;28;20206;-62
2022/07/13 03:20:14;;;;;;;2.10;1.20;;;;;;;;;;5097743;28;20241;-62
2022/07/13 03:22:42;;;;;;;1.77;1.23;;;;;;;;;;5097329;28;20276;-62
2022/07/13 03:25:12;;;;;;;2.63;1.17;;;;;;;;;;5097690;28;20206;-63
2022/07/13 03:27:47;;;;;;;1.20;1.13;;;;;;;;;;5097880;28;20221;-62
2022/07/13 03:30:15;;;;;;;2.30;1.07;;;;;;;;;;5097414;28;20206;-63
2022/07/13 03:32:43;;;;;;;1.00;1.00;;;;;;;;;;5097381;28;20230;-62
2022/07/13 03:35:11;;;;;;;2.63;1.00;;;;;;;;;;5104615;28;20216;-63
2022/07/13 03:37:39;;;;;;;1.07;1.03;;;;;;;;;;5117970;28;20287;-62
2022/07/13 03:40:08;;;;;;;1.57;1.10;;;;;;;;;;5117967;28;20236;-63
2022/07/13 03:42:39;;;;;;;1.20;1.10;;;;;;;;;;5117751;28;20227;-63
2022/07/13 03:45:08;;;;;;;3.07;1.10;;;;;;;;;;5102225;28;20235;-63
2022/07/13 03:47:36;;;;;;;1.37;1.27;;;;;;;;;;5096979;28;20282;-62
2022/07/13 03:50:04;;;;;;;1.10;1.00;;;;;;;;;;5097644;28;20215;-62
2022/07/13 03:52:32;;;;;;;1.63;1.10;;;;;;;;;;5097188;28;20653;-63
2022/07/13 03:55:00;;;;;;;4.27;1.90;;;;;;;;;;5097324;28;20308;-63
2022/07/13 03:57:28;;;;;;;2.30;1.37;;;;;;;;;;5097239;28;20241;-63
2022/07/13 03:59:57;;;;;;;1.37;1.27;;;;;;;;;;5097080;28;20295;-62
2022/07/13 04:02:25;;;;;;;5.17;1.17;;;;;;;;;;5097137;28;20209;-62
2022/07/13 04:04:53;;;;;;;2.00;1.20;;;;;;;;;;5097004;28;20625;-60
2022/07/13 04:07:21;;;;;;;1.60;1.50;;;;;;;;;;5097092;28;20646;-63
2022/07/13 04:09:49;;;;;;;1.53;1.03;;;;;;;;;;5097292;28;20255;-62
2022/07/13 04:12:20;;;;;;;5.03;1.70;;;;;;;;;;5097045;28;20233;-62
2022/07/13 04:14:48;;;;;;;2.07;1.30;;;;;;;;;;5097235;28;20265;-63
2022/07/13 04:17:17;;;;;;;3.53;1.10;;;;;;;;;;5096959;28;20234;-62
2022/07/13 04:19:45;;;;;;;1.57;1.30;;;;;;;;;;5096865;28;20698;-62
2022/07/13 04:22:13;;;;;;;1.30;1.20;;;;;;;;;;5096895;28;20240;-63
2022/07/13 04:24:41;;;;;;;3.70;1.23;;;;;;;;;;5097054;28;20238;-61
2022/07/13 04:27:09;;;;;;;3.13;1.43;;;;;;;;;;5093918;28;20198;-63
2022/07/13 04:29:37;;;;;;;2.33;1.80;;;;;;;;;;5096467;28;20206;-63
2022/07/13 04:32:05;;;;;;;6.87;3.27;;;;;;;;;;5094741;28;20233;-61
2022/07/13 04:34:35;;;;;;;6.30;3.10;;;;;;;;;;5095339;28;20413;-61
2022/07/13 04:37:03;;;;;;;5.47;3.20;;;;;;;;;;5100550;28;20300;-62
2022/07/13 04:39:31;;;;;;;5.33;2.80;;;;;;;;;;5100216;28;20245;-61
2022/07/13 04:41:59;;;;;;;6.30;3.60;;;;;;;;;;5091704;28;20302;-61
2022/07/13 04:44:27;;;;;;;3.87;2.97;;;;;;;;;;5089698;28;20526;-60
2022/07/13 04:46:55;;;;;;;3.57;2.77;;;;;;;;;;5097904;28;20231;-61
2022/07/13 04:49:23;;;;;;;7.40;3.30;;;;;;;;;;5101475;28;20230;-61
2022/07/13 04:51:53;;;;;;;6.37;3.10;;;;;;;;;;5119664;28;20240;-61
2022/07/13 04:54:22;;;;;;;4.83;2.60;;;;;;;;;;5110772;28;20222;-61
2022/07/13 04:56:50;;;;;;;5.43;3.00;;;;;;;;;;5114176;28;20280;-61
2022/07/13 04:59:17;;;;;;;7.70;2.70;;;;;;;;;;5120792;28;20436;-60
2022/07/13 05:01:45;;;;;;;3.60;2.50;;;;;;;;;;5091648;28;20236;-61
2022/07/13 05:04:14;;;;;;;7.77;2.67;;;;;;;;;;5102784;28;20649;-62
2022/07/13 05:06:42;;;;;;;6.87;2.30;;;;;;;;;;5099123;28;20202;-62
2022/07/13 05:09:11;;;;;;;8.03;2.47;;;;;;;;;;5101458;28;20200;-61
2022/07/13 05:11:40;;;;;;;5.33;2.63;;;;;;;;;;5096817;28;20243;-61
2022/07/13 05:14:08;;;;;;;3.33;2.20;;;;;;;;;;5098753;28;20252;-61
2022/07/13 05:16:36;;;;;;;2.23;2.03;;;;;;;;;;5100858;28;20683;-61
2022/07/13 05:19:04;;;;;;;4.60;2.30;;;;;;;;;;5099217;28;20194;-62
2022/07/13 05:21:32;;;;;;;5.27;2.40;;;;;;;;;;5098894;28;20201;-62
2022/07/13 05:24:00;;;;;;;3.67;2.93;;;;;;;;;;5096160;28;20252;-61
2022/07/13 05:26:30;;;;;;;5.97;2.23;;;;;;;;;;5104124;28;20709;-61
2022/07/13 05:28:58;;;;;;;7.77;2.77;;;;;;;;;;5106794;28;20695;-61
2022/07/13 05:31:26;;;;;;;4.90;2.30;;;;;;;;;;5103956;28;20211;-61
2022/07/13 05:33:54;;;;;;;2.77;2.50;;;;;;;;;;5098936;28;20680;-61
2022/07/13 05:36:22;;;;;;;3.97;2.43;;;;;;;;;;5108044;28;20205;-61
2022/07/13 05:38:50;;;;;;;3.97;2.37;;;;;;;;;;5108107;28;20220;-61
2022/07/13 05:41:18;;;;;;;5.23;2.60;;;;;;;;;;5110392;28;20252;-62
2022/07/13 05:43:48;;;;;;;3.90;2.10;;;;;;;;;;5100206;28;20250;-62
2022/07/13 05:46:17;;;;;;;3.00;2.50;;;;;;;;;;5105507;28;20672;-62
2022/07/13 05:48:45;;;;;;;3.87;2.33;;;;;;;;;;5114357;28;20205;-62
2022/07/13 05:51:13;;;;;;;5.00;2.80;;;;;;;;;;5094449;28;20233;-62
2022/07/13 05:54:01;;;;;;;6.03;2.20;;;;;;;;;;5095440;28;20226;-62
2022/07/13 05:56:49;;;;;;;5.03;2.63;;;;;;;;;;5098794;28;20206;-61
2022/07/13 05:59:18;;;;;;;3.20;2.43;;;;;;;;;;5098845;28;20205;-62
2022/07/13 06:01:46;;;;;;;4.47;3.37;;;;;;;;;;5091335;28;20238;-62
2022/07/13 06:04:15;;;;;;;4.30;2.47;;;;;;;;;;5119035;28;20267;-62
2022/07/13 06:06:43;;;;;;;4.47;2.40;;;;;;;;;;5118965;28;20205;-61
2022/07/13 06:09:11;;;;;;;3.47;2.60;;;;;;;;;;5101357;28;20243;-62
2022/07/13 06:11:40;;;;;;;2.57;2.33;;;;;;;;;;5098482;28;20616;-62
2022/07/13 06:14:08;;;;;;;3.83;2.37;;;;;;;;;;5098368;28;20701;-62
2022/07/13 06:16:37;;;;;;;6.57;2.40;;;;;;;;;;5098176;28;20211;-62
2022/07/13 06:19:05;;;;;;;3.17;2.13;;;;;;;;;;5098644;28;20211;-62
2022/07/13 06:21:33;;;;;;;3.13;2.57;;;;;;;;;;5098405;28;20212;-62
2022/07/13 06:24:01;;;;;;;7.40;2.43;;;;;;;;;;5098308;28;20252;-62
2022/07/13 06:26:30;;;;;;;3.83;2.27;;;;;;;;;;5086423;28;20556;-62
2022/07/13 06:28:58;;;;;;;5.70;2.67;;;;;;;;;;5098370;28;20208;-61
2022/07/13 06:31:26;;;;;;;9.60;2.57;;;;;;;;;;5098058;28;20231;-62
2022/07/13 06:33:56;;;;;;;5.07;2.53;;;;;;;;;;5090032;28;20284;-62
2022/07/13 06:36:23;;;;;;;11.00;3.03;;;;;;;;;;5109047;28;20231;-61
2022/07/13 06:38:52;;;;;;;8.53;2.70;;;;;;;;;;5082692;28;20203;-62
2022/07/13 06:41:20;;;;;;;6.20;2.90;;;;;;;;;;5117161;28;20290;-62
2022/07/13 06:43:48;;;;;;;7.70;2.23;;;;;;;;;;5094412;28;20227;-61
2022/07/13 06:46:16;;;;;;;4.60;2.37;;;;;;;;;;5097647;28;20216;-61
2022/07/13 06:48:52;;;;;;;4.73;2.50;;;;;;;;;;5097335;28;20212;-61
2022/07/13 06:51:22;;;;;;;4.10;2.17;;;;;;;;;;5097664;28;20246;-61
2022/07/13 06:53:50;;;;;;;6.90;2.30;;;;;;;;;;5089819;28;20263;-60
2022/07/13 06:56:18;;;;;;;2.77;2.10;;;;;;;;;;5097397;28;20224;-60
2022/07/13 06:58:46;;;;;;;5.93;2.30;;;;;;;;;;5099936;28;20205;-60
2022/07/13 07:01:14;;;;;;;4.23;2.33;;;;;;;;;;5097612;28;20208;-61
2022/07/13 07:03:42;;;;;;;2.67;1.80;;;;;;;;;;5098343;28;20245;-60
2022/07/13 07:06:10;;;;;;;4.23;2.00;;;;;;;;;;5095988;28;20230;-61
2022/07/13 07:08:39;;;;;;;3.87;2.10;;;;;;;;;;5099499;28;20203;-60
2022/07/13 07:11:07;;;;;;;1.70;1.60;;;;;;;;;;5097525;28;20235;-60
2022/07/13 07:13:35;;;;;;;2.13;1.93;;;;;;;;;;5097386;28;20286;-60
2022/07/13 07:16:03;;;;;;;6.83;2.53;;;;;;;;;;5097717;28;20741;-60
2022/07/13 07:18:32;;;;;;;1.77;1.53;;;;;;;;;;5097495;28;20235;-60
2022/07/13 07:21:00;;;;;;;4.10;2.10;;;;;;;;;;5097165;28;20212;-60
2022/07/13 07:23:28;;;;;;;4.77;2.30;;;;;;;;;;5091498;28;20245;-60
2022/07/13 07:25:58;;;;;;;5.00;1.53;;;;;;;;;;5090955;28;20287;-60
2022/07/13 07:28:26;;;;;;;3.73;1.97;;;;;;;;;;5097245;28;20241;-60
2022/07/13 07:30:54;;;;;;;3.67;2.10;;;;;;;;;;5097032;28;20644;-60
2022/07/13 07:33:22;;;;;;;5.67;1.90;;;;;;;;;;5096690;28;20261;-60
2022/07/13 07:35:50;;;;;;;6.30;1.80;;;;;;;;;;5096773;28;20208;-60
2022/07/13 07:38:18;;;;;;;3.13;1.77;;;;;;;;;;5097129;28;20234;-60
2022/07/13 07:40:46;;;;;;;3.53;1.67;;;;;;;;;;5097185;28;20202;-60
2022/07/13 07:43:15;;;;;;;4.70;1.80;;;;;;;;;;5097082;28;20262;-60
2022/07/13 07:45:43;;;;;;;1.93;1.73;;;;;;;;;;5093131;28;20254;-60
2022/07/13 07:48:11;;;;;;;5.90;1.90;;;;;;;;;;5096899;28;20207;-60
2022/07/13 07:50:39;;;;;;;2.60;1.60;;;;;;;;;;5097297;28;20203;-60
2022/07/13 07:53:07;;;;;;;2.57;1.73;;;;;;;;;;5097172;28;20253;-60
2022/07/13 07:55:36;;;;;;;2.03;1.77;;;;;;;;;;5097203;28;20200;-60
2022/07/13 07:58:03;;;;;;;5.43;1.93;;;;;;;;;;5092683;28;20211;-60
2022/07/13 08:00:33;;;;;;;2.07;1.77;;;;;;;;;;5097917;28;20639;-60
2022/07/13 08:03:03;;;;;;;2.63;1.87;;;;;;;;;;5100736;28;20584;-60
2022/07/13 08:05:32;;;;;;;5.13;1.90;;;;;;;;;;5100921;28;20612;-60
2022/07/13 08:08:00;;;;;;;6.60;1.90;;;;;;;;;;5101084;28;20292;-61
2022/07/13 08:10:28;;;;;;;9.37;2.87;;;;;;;;;;5101021;28;20206;-62
2022/07/13 08:12:57;;;;;;;2.67;1.53;;;;;;;;;;5100990;28;20215;-62
2022/07/13 08:15:25;;;;;;;2.83;2.00;;;;;;;;;;5100842;28;20219;-61
2022/07/13 08:17:55;;;;;;;7.70;2.50;;;;;;;;;;5100898;28;20208;-60
2022/07/13 08:20:23;;;;;;;2.60;1.70;;;;;;;;;;5100691;28;20209;-60
2022/07/13 08:22:51;;;;;;;3.87;2.00;;;;;;;;;;5096757;28;20676;-62
2022/07/13 08:25:20;;;;;;;2.13;1.80;;;;;;;;;;5100293;28;20597;-62
2022/07/13 08:27:48;;;;;;;5.33;1.90;;;;;;;;;;5100594;28;20205;-62
2022/07/13 08:30:16;;;;;;;4.93;1.97;;;;;;;;;;5100695;28;20234;-62
2022/07/13 08:32:44;;;;;;;4.63;1.60;;;;;;;;;;5100108;28;20207;-62
2022/07/13 08:40:45;;;;;;;3.07;1.87;;;;;;;;;;5100194;28;20202;-62
2022/07/13 08:43:13;;;;;;;5.47;2.00;;;;;;;;;;5099920;28;20309;-62
2022/07/13 08:45:44;;;;;;;1.90;1.80;;;;;;;;;;5097856;28;20293;-60
2022/07/13 08:48:15;;;;;;;4.93;1.87;;;;;;;;;;5086373;28;20642;-62
2022/07/13 08:50:45;;;;;;;4.33;2.10;;;;;;;;;;5099567;28;20642;-62
2022/07/13 08:53:14;;;;;;;6.80;1.70;;;;;;;;;;5100112;28;20221;-62
2022/07/13 08:55:42;;;;;;;5.67;2.00;;;;;;;;;;5099186;28;20215;-62
2022/07/13 08:58:17;;;;;;;3.10;1.53;;;;;;;;;;5100096;28;20208;-61
2022/07/13 09:00:45;;;;;;;3.33;2.17;;;;;;;;;;5100186;28;20213;-61
2022/07/13 09:03:13;;;;;;;4.43;1.93;;;;;;;;;;5099597;28;20299;-62
2022/07/13 09:05:41;;;;;;;5.27;2.07;;;;;;;;;;5099671;28;20674;-62
2022/07/13 09:08:12;;;;;;;4.93;2.53;;;;;;;;;;5100081;28;20216;-60
2022/07/13 09:10:53;;;;;;;4.70;1.80;;;;;;;;;;5099583;28;20242;-61
2022/07/13 09:13:35;;;;;;;6.77;1.80;;;;;;;;;;5099088;28;20222;-61
2022/07/13 09:16:16;;;;;;;1.83;1.70;;;;;;;;;;5099695;28;20229;-60
2022/07/13 09:18:44;;;;;;;2.33;1.93;;;;;;;;;;5097921;28;20201;-61
2022/07/13 09:21:13;;;;;;;8.60;2.00;;;;;;;;;;5097948;28;20234;-61
2022/07/13 09:23:43;;;;;;;3.23;1.70;;;;;;;;;;5097320;28;20278;-61
2022/07/13 09:26:11;;;;;;;3.00;1.63;;;;;;;;;;5095647;28;20236;-61
2022/07/13 09:28:43;;;;;;;2.10;1.50;;;;;;;;;;5087083;28;20703;-61
2022/07/13 09:31:12;;;;;;;2.20;1.80;;;;;;;;;;5097488;28;20304;-61
2022/07/13 09:33:41;;;;;;;4.57;1.87;;;;;;;;;;5101061;28;20223;-61
2022/07/13 09:36:10;;;;;;;2.40;1.43;;;;;;;;;;5119449;28;20666;-61
2022/07/13 09:38:38;;;;;;;3.97;1.87;;;;;;;;;;5118491;28;20210;-61
2022/07/13 09:41:21;;;;;;;3.37;1.60;;;;;;;;;;5115060;28;20212;-61
2022/07/13 09:46:51;;;;;;;3.77;2.10;;;;;;;;;;5088196;28;20239;-61
2022/07/13 09:49:19;;;;;;;2.07;1.80;;;;;;;;;;5099383;28;20201;-61
2022/07/13 09:51:47;;;;;;;6.70;1.90;;;;;;;;;;5099048;28;20734;-61
2022/07/13 09:54:16;;;;;;;3.67;1.80;;;;;;;;;;5098710;28;20700;-60
2022/07/13 09:56:48;;;;;;;5.13;2.00;;;;;;;;;;5098639;28;20205;-61
2022/07/13 09:59:17;;;;;;;5.30;1.67;;;;;;;;;;5099063;28;20204;-61
2022/07/13 10:01:46;;;;;;;3.60;1.60;;;;;;;;;;5098823;28;20297;-61
2022/07/13 10:04:15;;;;;;;4.90;1.90;;;;;;;;;;5098569;28;20704;-61
2022/07/13 10:07:03;;;;;;;3.87;1.60;;;;;;;;;;5098572;28;20228;-61
2022/07/13 10:09:31;;;;;;;3.93;2.00;;;;;;;;;;5098892;28;20245;-60
2022/07/13 10:12:01;;;;;;;2.47;1.60;;;;;;;;;;5097874;28;20237;-61
2022/07/13 10:14:29;;;;;;;2.90;1.73;;;;;;;;;;5099144;28;20645;-61
2022/07/13 10:16:59;;;;;;;2.40;1.40;;;;;;;;;;5099511;28;20611;-60
2022/07/13 10:19:27;;;;;;;2.27;1.90;;;;;;;;;;5098120;28;20207;-60
2022/07/13 10:22:01;;;;;;;4.32;2.13;;;;;;;;;;5098284;28;20260;-60
2022/07/13 10:24:29;;;;;;;2.22;1.73;;;;;;;;;;5096422;28;20228;-61
2022/07/13 10:27:12;;;;;;;3.70;2.70;;;;;;;;;;5106082;28;20234;-60
2022/07/13 10:29:49;;;;;;;4.07;1.90;;;;;;;;;;5118367;28;20231;-61
2022/07/13 10:32:18;;;;;;;3.85;1.80;;;;;;;;;;5118506;28;20237;-61
2022/07/13 10:34:53;;;;;;;2.72;1.70;;;;;;;;;;5118404;28;20252;-60
2022/07/13 10:37:23;;;;;;;3.65;3.30;;;;;;;;;;5118542;28;20613;-61
2022/07/13 10:40:10;;;;;;;4.82;2.10;;;;;;;;;;5118476;28;20231;-60
2022/07/13 10:43:00;;;;;;;4.10;1.73;;;;;;;;;;5118399;28;20254;-61
2022/07/13 10:45:40;;;;;;;3.72;1.80;;;;;;;;;;5093965;28;20619;-60
2022/07/13 10:48:10;;;;;;;3.15;1.60;;;;;;;;;;5085140;28;20251;-61
2022/07/13 10:50:47;;;;;;;2.78;1.50;;;;;;;;;;5096874;28;20234;-61
2022/07/13 10:53:17;;;;;;;1.92;1.60;;;;;;;;;;5096764;28;20777;-61
2022/07/13 10:55:46;;;;;;;2.03;1.42;;;;;;;;;;5096551;28;20205;-60
2022/07/13 10:58:40;;;;;;;1.52;1.33;;;;;;;;;;5097066;28;20231;-62
2022/07/13 11:01:24;;;;;;;4.70;2.22;;;;;;;;;;5097042;28;20205;-60
2022/07/13 11:03:54;;;;;;;2.45;1.65;;;;;;;;;;5097141;28;20587;-60
2022/07/13 11:06:23;;;;;;;3.45;1.58;;;;;;;;;;5097636;28;20209;-60
2022/07/13 11:09:06;;;;;;;6.47;1.85;;;;;;;;;;5098623;28;20596;-60
2022/07/13 11:11:34;;;;;;;4.13;1.63;;;;;;;;;;5096548;28;20197;-60
2022/07/13 11:14:22;;;;;;;8.93;1.50;;;;;;;;;;5098428;28;20303;-60
2022/07/13 11:16:50;;;;;;;3.38;1.40;;;;;;;;;;5095522;28;20191;-60
2022/07/13 11:19:34;;;;;;;1.92;1.67;;;;;;;;;;5097865;28;20211;-61
2022/07/13 11:22:07;;;;;;;4.63;1.73;;;;;;;;;;5098829;28;20269;-60
2022/07/13 11:27:30;;;;;;;3.85;1.50;;;;;;;;;;5099748;28;20250;-60
2022/07/13 11:29:59;;;;;;;3.03;1.65;;;;;;;;;;5107713;28;20226;-60
2022/07/13 11:32:29;;;;;;;2.28;1.40;;;;;;;;;;5098801;28;20199;-60
2022/07/13 11:34:58;;;;;;;1.40;1.10;;;;;;;;;;5097051;28;20261;-60
2022/07/13 11:37:27;;;;;;;1.55;1.45;;;;;;;;;;5101149;28;20200;-60
2022/07/13 11:39:55;;;;;;;4.38;1.40;;;;;;;;;;5101600;28;20578;-60
2022/07/13 11:42:23;;;;;;;1.33;1.23;;;;;;;;;;5101436;28;20639;-60
2022/07/13 11:44:52;;;;;;;1.70;1.60;;;;;;;;;;5101575;28;20233;-60
2022/07/13 11:47:20;;;;;;;1.42;1.35;;;;;;;;;;5100946;28;20243;-60
2022/07/13 11:49:49;;;;;;;1.52;1.30;;;;;;;;;;5101286;28;20244;-60
2022/07/13 11:52:20;;;;;;;1.67;1.42;;;;;;;;;;5101595;28;20217;-60
2022/07/13 11:54:57;;;;;;;1.98;1.23;;;;;;;;;;5101293;28;20234;-60
2022/07/13 11:57:25;;;;;;;1.30;1.20;;;;;;;;;;5101084;28;20229;-62
2022/07/13 11:59:53;;;;;;;1.73;1.42;;;;;;;;;;5100986;28;20708;-60
2022/07/13 12:02:21;;;;;;;6.50;1.60;;;;;;;;;;5100948;28;20243;-60
2022/07/13 12:04:49;;;;;;;3.78;1.40;;;;;;;;;;5101420;28;20256;-60
2022/07/13 12:07:19;;;;;;;1.88;1.20;;;;;;;;;;5101128;28;20229;-60
2022/07/13 12:09:50;;;;;;;2.45;1.55;;;;;;;;;;5101265;28;20209;-60
2022/07/13 12:12:21;;;;;;;4.30;1.50;;;;;;;;;;5100757;28;20205;-61
2022/07/13 12:14:50;;;;;;;1.40;1.33;;;;;;;;;;5100885;28;20731;-62
2022/07/13 12:17:18;;;;;;;1.95;1.20;;;;;;;;;;5100603;28;20235;-62
2022/07/13 12:19:46;;;;;;;1.63;1.20;;;;;;;;;;5100850;28;20209;-62
2022/07/13 12:22:14;;;;;;;1.73;1.63;;;;;;;;;;5100601;28;20259;-62
2022/07/13 12:24:47;;;;;;;4.75;1.45;;;;;;;;;;5100794;28;20229;-61
2022/07/13 12:27:25;;;;;;;1.80;1.30;;;;;;;;;;5100430;28;20217;-59
2022/07/13 12:30:05;;;;;;;1.88;1.25;;;;;;;;;;5100788;28;20288;-61
2022/07/13 12:32:33;;;;;;;1.50;1.40;;;;;;;;;;5100180;28;20688;-61
2022/07/13 12:35:01;;;;;;;1.13;1.13;;;;;;;;;;5121086;28;20228;-61
2022/07/13 12:37:35;;;;;;;3.10;1.30;;;;;;;;;;5121121;28;20204;-61
2022/07/13 12:40:04;;;;;;;1.48;1.40;;;;;;;;;;5120679;28;20235;-61
2022/07/13 12:42:35;;;;;;;1.30;1.20;;;;;;;;;;5121144;28;20233;-61
2022/07/13 12:45:15;;;;;;;2.25;1.05;;;;;;;;;;5101224;28;20225;-60
2022/07/13 12:47:43;;;;;;;2.55;1.40;;;;;;;;;;5098930;28;20235;-61
2022/07/13 12:50:26;;;;;;;4.65;1.38;;;;;;;;;;5084497;28;20229;-61
2022/07/13 12:53:00;;;;;;;1.73;1.63;;;;;;;;;;5099130;28;20669;-61
2022/07/13 12:55:30;;;;;;;1.27;1.17;;;;;;;;;;5099627;28;20266;-61
2022/07/13 12:58:00;;;;;;;2.70;1.38;;;;;;;;;;5091406;28;20643;-59
2022/07/13 13:00:28;;;;;;;2.80;1.30;;;;;;;;;;5090312;28;20197;-61
2022/07/13 13:02:57;;;;;;;3.60;1.40;;;;;;;;;;5083125;28;20209;-61
2022/07/13 13:05:26;;;;;;;1.40;1.30;;;;;;;;;;5092663;28;20297;-61
2022/07/13 13:07:54;;;;;;;2.60;1.50;;;;;;;;;;5098309;28;20225;-60
2022/07/13 13:10:23;;;;;;;2.80;1.20;;;;;;;;;;5094985;28;20693;-59
2022/07/13 13:12:51;;;;;;;2.28;2.08;;;;;;;;;;5087146;28;20213;-61
2022/07/13 13:15:22;;;;;;;1.88;1.45;;;;;;;;;;5092413;28;20202;-61
2022/07/13 13:17:51;;;;;;;3.05;1.30;;;;;;;;;;5088395;28;20201;-61
2022/07/13 13:20:19;;;;;;;1.80;1.60;;;;;;;;;;5099378;28;20205;-61
2022/07/13 13:22:47;;;;;;;1.60;1.50;;;;;;;;;;5082179;28;20272;-61
2022/07/13 13:25:16;;;;;;;2.92;1.55;;;;;;;;;;5099504;28;20263;-61
2022/07/13 13:27:44;;;;;;;4.18;1.40;;;;;;;;;;5100101;28;20203;-61
2022/07/13 13:30:45;;;;;;;5.07;1.40;;;;;;;;;;5084792;28;20213;-61
2022/07/13 13:33:13;;;;;;;3.90;1.40;;;;;;;;;;5080954;28;20271;-61
2022/07/13 13:35:42;;;;;;;2.83;1.35;;;;;;;;;;5096840;28;20296;-61
2022/07/13 13:38:10;;;;;;;1.42;1.30;;;;;;;;;;5099533;28;20254;-61
2022/07/13 13:40:39;;;;;;;1.38;1.30;;;;;;;;;;5082875;28;20213;-61
2022/07/13 13:43:08;;;;;;;1.38;1.27;;;;;;;;;;5080122;28;20234;-61
2022/07/13 13:45:38;;;;;;;1.52;1.20;;;;;;;;;;5096953;28;20576;-61
2022/07/13 13:48:07;;;;;;;2.90;1.52;;;;;;;;;;5090106;28;20292;-61
2022/07/13 13:50:35;;;;;;;1.40;1.30;;;;;;;;;;5093458;28;20687;-61
2022/07/13 13:53:03;;;;;;;1.75;1.30;;;;;;;;;;5096502;28;20221;-61
2022/07/13 13:55:31;;;;;;;1.42;1.30;;;;;;;;;;5097337;28;20251;-61
2022/07/13 13:57:59;;;;;;;1.35;1.10;;;;;;;;;;5090698;28;20256;-61
2022/07/13 14:00:27;;;;;;;1.63;1.48;;;;;;;;;;5097382;28;20309;-61
2022/07/13 14:02:58;;;;;;;2.83;1.10;;;;;;;;;;5093256;28;20591;-61
2022/07/13 14:05:27;;;;;;;1.30;1.20;;;;;;;;;;5095234;28;20209;-61
2022/07/13 14:07:55;;;;;;;4.45;1.30;;;;;;;;;;5086490;28;20212;-61
2022/07/13 14:10:24;;;;;;;1.58;1.48;;;;;;;;;;5085147;28;20213;-61
2022/07/13 14:12:52;;;;;;;1.55;1.27;;;;;;;;;;5098187;28;20648;-61
2022/07/13 14:15:21;;;;;;;2.45;1.40;;;;;;;;;;5094112;28;20209;-61
2022/07/13 14:17:49;;;;;;;1.10;1.00;;;;;;;;;;5089410;28;20639;-61
2022/07/13 14:20:21;;;;;;;3.60;1.80;;;;;;;;;;5077933;28;20201;-61
2022/07/13 14:22:49;;;;;;;1.40;1.15;;;;;;;;;;5085942;28;20282;-61
2022/07/13 14:25:17;;;;;;;1.75;1.00;;;;;;;;;;5090770;28;20243;-61
2022/07/13 14:27:46;;;;;;;1.20;1.10;;;;;;;;;;5087820;28;20209;-61
2022/07/13 14:30:14;;;;;;;2.97;1.20;;;;;;;;;;5087852;28;20315;-61
2022/07/13 14:32:43;;;;;;;2.10;1.40;;;;;;;;;;5101013;28;20205;-61
2022/07/13 14:35:21;;;;;;;1.40;1.20;;;;;;;;;;5098108;28;20204;-61
2022/07/13 14:37:51;;;;;;;1.40;1.15;;;;;;;;;;5097566;28;20575;-61
2022/07/13 14:40:39;;;;;;;1.42;1.30;;;;;;;;;;5088839;28;20208;-61
2022/07/13 14:43:08;;;;;;;2.83;1.30;;;;;;;;;;5100368;28;20233;-61
2022/07/13 14:45:36;;;;;;;1.08;1.05;;;;;;;;;;5087309;28;20241;-61
2022/07/13 14:48:05;;;;;;;1.10;1.10;;;;;;;;;;5094865;28;20211;-61
2022/07/13 14:50:55;;;;;;;3.97;1.50;;;;;;;;;;5094665;28;20225;-61
2022/07/13 14:53:40;;;;;;;1.60;1.50;;;;;;;;;;5084268;28;20704;-61
2022/07/13 14:56:09;;;;;;;2.85;1.80;;;;;;;;;;5095208;28;20223;-61
2022/07/13 14:58:38;;;;;;;3.35;1.45;;;;;;;;;;5079346;28;20240;-61
2022/07/13 15:01:15;;;;;;;2.13;1.35;;;;;;;;;;5086572;28;20216;-61
2022/07/13 15:03:49;;;;;;;1.50;1.40;;;;;;;;;;5095207;28;20228;-61
2022/07/13 15:06:19;;;;;;;2.28;1.38;;;;;;;;;;5080878;28;20289;-61
2022/07/13 15:08:48;;;;;;;2.72;1.50;;;;;;;;;;5095416;28;20286;-61
2022/07/13 15:11:36;;;;;;;1.80;1.60;;;;;;;;;;5084151;28;20681;-61